Time;durP1;ratioP1;P1;durP2;ratioP2;P2;SDS_P1;SDS_P2;PMS_P1;PMS_P2;Temp;Humidity;BMP_temperature;BMP_pressure;BME280_temperature;BME280_humidity;BME280_pressure;Samples;Min_cycle;Max_cycle;Signal;HPM_P1;HPM_P2
2022/03/20 00:00:10;;;;;;;10.77;8.67;;;;;;;;;;5121751;27;20441;-49
2022/03/20 00:02:36;;;;;;;13.33;9.33;;;;;;;;;;5134376;27;20110;-52
2022/03/20 00:05:02;;;;;;;15.53;9.90;;;;;;;;;;5126067;27;20038;-47
2022/03/20 00:07:29;;;;;;;16.97;10.17;;;;;;;;;;5126491;27;20039;-50
2022/03/20 00:09:55;;;;;;;16.50;10.03;;;;;;;;;;5132796;27;20038;-49
2022/03/20 00:12:21;;;;;;;11.60;8.93;;;;;;;;;;5133585;27;20102;-48
2022/03/20 00:14:47;;;;;;;13.77;10.17;;;;;;;;;;5114085;27;20031;-46
2022/03/20 00:17:14;;;;;;;17.67;9.30;;;;;;;;;;5134488;27;20019;-48
2022/03/20 00:19:40;;;;;;;14.60;9.80;;;;;;;;;;5104526;28;20051;-46
2022/03/20 00:22:07;;;;;;;13.97;9.37;;;;;;;;;;5113390;28;20031;-48
2022/03/20 00:24:34;;;;;;;13.10;8.87;;;;;;;;;;5121258;27;20084;-46
2022/03/20 00:27:00;;;;;;;14.83;9.77;;;;;;;;;;5132952;27;20060;-48
2022/03/20 00:29:27;;;;;;;12.33;9.33;;;;;;;;;;5132448;27;20476;-47
2022/03/20 00:31:53;;;;;;;15.17;9.27;;;;;;;;;;5133858;27;20031;-47
2022/03/20 00:34:19;;;;;;;15.13;10.53;;;;;;;;;;5131484;27;20039;-48
2022/03/20 00:36:45;;;;;;;14.47;9.70;;;;;;;;;;5133973;27;20034;-47
2022/03/20 00:39:11;;;;;;;17.63;10.43;;;;;;;;;;5132482;27;20023;-47
2022/03/20 00:41:37;;;;;;;14.70;10.20;;;;;;;;;;5117063;27;20039;-49
2022/03/20 00:44:03;;;;;;;13.17;9.37;;;;;;;;;;5097802;28;20106;-49
2022/03/20 00:46:29;;;;;;;14.43;9.70;;;;;;;;;;5133677;27;20024;-50
2022/03/20 00:48:55;;;;;;;11.73;9.17;;;;;;;;;;5131872;27;20037;-51
2022/03/20 00:51:22;;;;;;;15.90;9.40;;;;;;;;;;5133715;27;20118;-50
2022/03/20 00:53:48;;;;;;;17.03;8.80;;;;;;;;;;5131939;27;20076;-47
2022/03/20 00:56:14;;;;;;;15.63;9.10;;;;;;;;;;5130674;27;20443;-48
2022/03/20 00:58:40;;;;;;;14.53;9.40;;;;;;;;;;5126289;27;20056;-47
2022/03/20 01:01:10;;;;;;;15.00;9.37;;;;;;;;;;5132140;27;20039;-48
2022/03/20 01:03:38;;;;;;;13.97;9.17;;;;;;;;;;5132926;27;20031;-48
2022/03/20 01:06:07;;;;;;;13.73;9.97;;;;;;;;;;5130676;27;20042;-47
2022/03/20 01:08:34;;;;;;;14.70;9.20;;;;;;;;;;5133476;27;20364;-51
2022/03/20 01:11:01;;;;;;;13.73;9.17;;;;;;;;;;5118980;27;20031;-49
2022/03/20 01:13:27;;;;;;;17.07;9.87;;;;;;;;;;5119853;28;20043;-52
2022/03/20 01:15:53;;;;;;;13.43;9.47;;;;;;;;;;5132002;28;20027;-51
2022/03/20 01:18:19;;;;;;;14.23;9.10;;;;;;;;;;5133199;28;20027;-47
2022/03/20 01:20:45;;;;;;;11.97;9.30;;;;;;;;;;5131237;28;20035;-47
2022/03/20 01:23:12;;;;;;;16.27;10.20;;;;;;;;;;5132239;28;20019;-48
2022/03/20 01:25:40;;;;;;;12.73;8.93;;;;;;;;;;5130300;28;20050;-49
2022/03/20 01:28:06;;;;;;;16.40;9.77;;;;;;;;;;5119454;28;20019;-48
2022/03/20 01:30:32;;;;;;;12.57;8.93;;;;;;;;;;5131790;28;20033;-47
2022/03/20 01:32:58;;;;;;;12.97;9.23;;;;;;;;;;5133110;28;20058;-48
2022/03/20 01:35:24;;;;;;;12.60;9.73;;;;;;;;;;5131412;28;20051;-50
2022/03/20 01:37:50;;;;;;;14.73;9.90;;;;;;;;;;5114651;28;20015;-48
2022/03/20 01:40:16;;;;;;;13.37;8.50;;;;;;;;;;5131334;28;20053;-47
2022/03/20 01:42:43;;;;;;;16.20;9.70;;;;;;;;;;5114575;28;20027;-47
2022/03/20 01:45:16;;;;;;;16.20;11.13;;;;;;;;;;5129033;28;20498;-49
2022/03/20 01:47:43;;;;;;;14.13;9.90;;;;;;;;;;5114385;28;20091;-47
2022/03/20 01:50:09;;;;;;;13.67;9.57;;;;;;;;;;5121949;28;20114;-49
2022/03/20 01:52:48;;;;;;;11.90;9.53;;;;;;;;;;5132850;28;20024;-50
2022/03/20 01:55:15;;;;;;;14.03;9.33;;;;;;;;;;5120330;28;20016;-51
2022/03/20 01:57:42;;;;;;;11.60;9.23;;;;;;;;;;5112157;28;20028;-48
2022/03/20 02:00:10;;;;;;;16.70;9.17;;;;;;;;;;5127417;27;20484;-51
2022/03/20 02:02:36;;;;;;;14.60;9.77;;;;;;;;;;5136506;27;20027;-48
2022/03/20 02:05:04;;;;;;;11.57;9.03;;;;;;;;;;5129835;27;20024;-50
2022/03/20 02:07:34;;;;;;;13.63;9.53;;;;;;;;;;5135849;27;20027;-48
2022/03/20 02:10:00;;;;;;;15.47;8.87;;;;;;;;;;5133013;27;20102;-50
2022/03/20 02:12:26;;;;;;;15.17;9.83;;;;;;;;;;5121538;27;20024;-49
2022/03/20 02:14:53;;;;;;;13.43;10.60;;;;;;;;;;5097462;28;20020;-49
2022/03/20 02:17:19;;;;;;;13.70;9.93;;;;;;;;;;5115841;28;20042;-51
2022/03/20 02:19:46;;;;;;;15.27;9.60;;;;;;;;;;5121133;27;20121;-52
2022/03/20 02:22:12;;;;;;;12.97;9.97;;;;;;;;;;5136156;27;20033;-49
2022/03/20 02:24:41;;;;;;;15.73;10.13;;;;;;;;;;5133711;27;20038;-51
2022/03/20 02:27:11;;;;;;;14.83;10.30;;;;;;;;;;5136137;27;20019;-48
2022/03/20 02:29:37;;;;;;;12.53;9.63;;;;;;;;;;5135123;27;20026;-52
2022/03/20 02:32:04;;;;;;;15.67;10.27;;;;;;;;;;5136255;27;20553;-49
2022/03/20 02:34:31;;;;;;;12.57;9.07;;;;;;;;;;5134359;27;20126;-50
2022/03/20 02:36:57;;;;;;;12.83;9.70;;;;;;;;;;5136067;27;20019;-50
2022/03/20 02:39:24;;;;;;;13.97;10.00;;;;;;;;;;5134537;27;20321;-48
2022/03/20 02:41:50;;;;;;;13.77;9.67;;;;;;;;;;5135978;27;20031;-48
2022/03/20 02:44:16;;;;;;;15.30;9.63;;;;;;;;;;5134620;27;20031;-47
2022/03/20 02:46:43;;;;;;;18.13;10.33;;;;;;;;;;5135872;27;20034;-48
2022/03/20 02:49:10;;;;;;;13.57;9.57;;;;;;;;;;5134543;27;20103;-50
2022/03/20 02:51:36;;;;;;;12.43;9.23;;;;;;;;;;5134332;27;20447;-48
2022/03/20 02:54:03;;;;;;;17.53;10.13;;;;;;;;;;5135193;27;20475;-48
2022/03/20 02:56:29;;;;;;;12.73;9.90;;;;;;;;;;5134372;27;20455;-51
2022/03/20 02:58:55;;;;;;;13.43;9.10;;;;;;;;;;5135453;27;20080;-48
2022/03/20 03:01:22;;;;;;;14.03;9.27;;;;;;;;;;5134462;27;20043;-48
2022/03/20 03:03:48;;;;;;;12.70;10.07;;;;;;;;;;5134420;27;20031;-49
2022/03/20 03:06:15;;;;;;;13.73;10.57;;;;;;;;;;5133344;27;20554;-49
2022/03/20 03:11:25;;;;;;;18.08;10.23;;;;;;;;;;5134164;27;20084;-48
2022/03/20 03:13:51;;;;;;;15.27;9.87;;;;;;;;;;5135473;27;20019;-47
2022/03/20 03:16:18;;;;;;;14.77;9.83;;;;;;;;;;5133990;27;20030;-48
2022/03/20 03:18:47;;;;;;;16.33;11.90;;;;;;;;;;5134958;27;20071;-51
2022/03/20 03:21:14;;;;;;;14.77;10.27;;;;;;;;;;5109643;27;20043;-48
2022/03/20 03:23:40;;;;;;;15.43;11.30;;;;;;;;;;5134974;27;20023;-49
2022/03/20 03:26:06;;;;;;;15.23;10.40;;;;;;;;;;5133849;27;20027;-47
2022/03/20 03:28:36;;;;;;;16.97;11.33;;;;;;;;;;5134911;27;20482;-50
2022/03/20 03:31:06;;;;;;;17.50;11.00;;;;;;;;;;5121889;27;20084;-50
2022/03/20 03:33:32;;;;;;;14.20;11.03;;;;;;;;;;5115521;27;20027;-53
2022/03/20 03:36:01;;;;;;;17.73;11.10;;;;;;;;;;5133792;27;20047;-53
2022/03/20 03:38:35;;;;;;;15.40;11.23;;;;;;;;;;5134933;27;20050;-52
2022/03/20 03:41:01;;;;;;;16.80;11.60;;;;;;;;;;5133811;27;20034;-53
2022/03/20 03:43:28;;;;;;;12.10;9.93;;;;;;;;;;5134573;27;20035;-51
2022/03/20 03:45:55;;;;;;;16.87;10.33;;;;;;;;;;5105442;27;20031;-53
2022/03/20 03:48:21;;;;;;;16.10;10.27;;;;;;;;;;5117330;27;20042;-48
2022/03/20 03:50:48;;;;;;;15.27;10.57;;;;;;;;;;5121103;27;20103;-52
2022/03/20 03:53:15;;;;;;;16.50;11.17;;;;;;;;;;5116297;27;20024;-53
2022/03/20 03:55:44;;;;;;;16.83;11.30;;;;;;;;;;5095872;28;20031;-47
2022/03/20 03:58:14;;;;;;;16.70;11.87;;;;;;;;;;5113930;28;20027;-47
2022/03/20 04:00:40;;;;;;;19.00;11.50;;;;;;;;;;5132313;27;20035;-47
2022/03/20 04:03:06;;;;;;;16.33;11.23;;;;;;;;;;5134485;27;20019;-47
2022/03/20 04:05:34;;;;;;;14.37;11.27;;;;;;;;;;5132598;27;20035;-47
2022/03/20 04:08:01;;;;;;;16.60;11.80;;;;;;;;;;5134422;27;20023;-47
2022/03/20 04:10:27;;;;;;;17.00;11.63;;;;;;;;;;5131133;27;20523;-46
2022/03/20 04:12:54;;;;;;;21.43;12.93;;;;;;;;;;5134127;27;20125;-48
2022/03/20 04:15:24;;;;;;;18.63;11.17;;;;;;;;;;5132898;27;20027;-50
2022/03/20 04:17:51;;;;;;;18.43;10.80;;;;;;;;;;5132405;27;20444;-48
2022/03/20 04:20:17;;;;;;;17.77;11.90;;;;;;;;;;5116663;27;20488;-48
2022/03/20 04:25:30;;;;;;;15.53;12.10;;;;;;;;;;5100920;27;20027;-48
2022/03/20 04:27:56;;;;;;;18.53;10.97;;;;;;;;;;5133638;27;20391;-48
2022/03/20 04:30:26;;;;;;;15.03;10.63;;;;;;;;;;5132624;27;20031;-47
2022/03/20 04:32:53;;;;;;;16.13;11.30;;;;;;;;;;5123182;27;20024;-47
2022/03/20 04:35:23;;;;;;;15.80;11.57;;;;;;;;;;5112891;28;20051;-50
2022/03/20 04:37:49;;;;;;;18.90;11.67;;;;;;;;;;5113621;28;20028;-49
2022/03/20 04:40:16;;;;;;;19.10;11.97;;;;;;;;;;5096473;28;20069;-47
2022/03/20 04:42:42;;;;;;;18.07;12.30;;;;;;;;;;5115413;27;20414;-48
2022/03/20 04:45:08;;;;;;;14.53;10.40;;;;;;;;;;5132256;27;20364;-48
2022/03/20 04:58:32;;;;;;;21.33;13.05;;;;;;;;;;5112840;28;20503;-48
2022/03/20 05:00:58;;;;;;;17.37;12.17;;;;;;;;;;5118788;27;20038;-47
2022/03/20 05:03:24;;;;;;;18.30;12.10;;;;;;;;;;5123119;27;20019;-49
2022/03/20 05:05:50;;;;;;;17.17;12.17;;;;;;;;;;5117554;28;20015;-47
2022/03/20 05:08:16;;;;;;;19.47;12.77;;;;;;;;;;5133174;27;20094;-49
2022/03/20 05:13:27;;;;;;;18.85;13.25;;;;;;;;;;5132089;28;20066;-47
2022/03/20 05:15:57;;;;;;;15.67;11.80;;;;;;;;;;5131706;28;20015;-48
2022/03/20 05:18:23;;;;;;;18.07;12.23;;;;;;;;;;5132961;28;20111;-47
2022/03/20 05:20:51;;;;;;;17.47;12.33;;;;;;;;;;5131885;28;20528;-52
2022/03/20 05:23:17;;;;;;;19.77;13.70;;;;;;;;;;5133167;28;20479;-48
2022/03/20 05:25:43;;;;;;;16.87;11.90;;;;;;;;;;5131877;28;20063;-48
2022/03/20 05:28:21;;;;;;;20.10;13.20;;;;;;;;;;5133347;28;20046;-51
2022/03/20 05:30:48;;;;;;;19.43;12.50;;;;;;;;;;5131931;28;20452;-47
2022/03/20 05:33:16;;;;;;;20.80;12.90;;;;;;;;;;5132917;27;20456;-50
2022/03/20 05:35:45;;;;;;;17.77;12.17;;;;;;;;;;5133163;27;20129;-46
2022/03/20 05:38:11;;;;;;;18.47;12.47;;;;;;;;;;5118678;27;20055;-48
2022/03/20 05:40:41;;;;;;;16.87;12.33;;;;;;;;;;5135911;27;20084;-47
2022/03/20 05:43:10;;;;;;;18.30;12.60;;;;;;;;;;5117607;27;20032;-47
2022/03/20 05:45:39;;;;;;;17.03;12.27;;;;;;;;;;5135889;27;20210;-47
2022/03/20 05:48:06;;;;;;;16.20;12.43;;;;;;;;;;5137201;27;20019;-48
2022/03/20 05:50:32;;;;;;;18.37;12.97;;;;;;;;;;5135683;27;20141;-49
2022/03/20 05:52:58;;;;;;;19.83;13.03;;;;;;;;;;5137082;27;20385;-50
2022/03/20 05:58:01;;;;;;;18.23;12.40;;;;;;;;;;5118355;27;20019;-49
2022/03/20 05:58:13;;;;;;;19.70;13.00;;;;;;;;;;5116201;28;20050;-48
2022/03/20 06:00:43;;;;;;;19.03;11.90;;;;;;;;;;5132585;27;20075;-51
2022/03/20 06:03:10;;;;;;;18.60;12.67;;;;;;;;;;5111028;28;20385;-50
2022/03/20 06:05:36;;;;;;;20.63;12.63;;;;;;;;;;5123981;27;20051;-47
2022/03/20 06:08:03;;;;;;;21.13;12.97;;;;;;;;;;5105241;28;20020;-50
2022/03/20 06:10:29;;;;;;;16.40;12.33;;;;;;;;;;5108062;27;20027;-51
2022/03/20 06:12:55;;;;;;;20.07;12.57;;;;;;;;;;5122521;27;20138;-47
2022/03/20 06:15:21;;;;;;;21.83;13.40;;;;;;;;;;5126858;27;20105;-50
2022/03/20 06:17:48;;;;;;;17.50;12.90;;;;;;;;;;5102377;27;20023;-49
2022/03/20 06:20:15;;;;;;;18.77;13.27;;;;;;;;;;5124221;27;20127;-49
2022/03/20 06:22:41;;;;;;;21.67;14.47;;;;;;;;;;5124097;27;20031;-47
2022/03/20 06:25:11;;;;;;;20.93;13.50;;;;;;;;;;5127401;27;20020;-48
2022/03/20 06:27:43;;;;;;;17.97;13.37;;;;;;;;;;5126335;27;20098;-49
2022/03/20 06:30:10;;;;;;;20.53;13.47;;;;;;;;;;5125240;27;20030;-51
2022/03/20 06:32:37;;;;;;;19.53;12.87;;;;;;;;;;5122703;27;20137;-48
2022/03/20 06:35:04;;;;;;;20.27;13.03;;;;;;;;;;5122588;27;20465;-47
2022/03/20 06:37:35;;;;;;;18.97;13.63;;;;;;;;;;5125851;27;22478;-47
2022/03/20 06:40:01;;;;;;;17.37;13.10;;;;;;;;;;5119996;27;20027;-47
2022/03/20 06:42:28;;;;;;;20.97;14.07;;;;;;;;;;5119637;27;20058;-47
2022/03/20 06:44:55;;;;;;;20.83;13.73;;;;;;;;;;5120768;27;20015;-48
2022/03/20 06:47:23;;;;;;;21.93;15.23;;;;;;;;;;5122276;27;20027;-47
2022/03/20 06:49:49;;;;;;;21.23;14.23;;;;;;;;;;5106054;28;20019;-49
2022/03/20 06:52:15;;;;;;;24.37;14.87;;;;;;;;;;5097824;27;20135;-48
2022/03/20 06:54:41;;;;;;;19.97;13.90;;;;;;;;;;5122684;27;20112;-46
2022/03/20 06:57:07;;;;;;;21.20;13.93;;;;;;;;;;5124702;27;20085;-47
2022/03/20 06:59:33;;;;;;;21.70;14.37;;;;;;;;;;5123230;27;20443;-47
2022/03/20 07:01:59;;;;;;;23.70;15.40;;;;;;;;;;5117887;27;20115;-48
2022/03/20 07:04:26;;;;;;;20.43;14.70;;;;;;;;;;5124560;27;20122;-48
2022/03/20 07:06:52;;;;;;;20.60;15.07;;;;;;;;;;5101823;27;20046;-48
2022/03/20 07:09:18;;;;;;;20.50;14.80;;;;;;;;;;5134478;27;20019;-47
2022/03/20 07:11:44;;;;;;;20.77;14.93;;;;;;;;;;5134391;27;20027;-47
2022/03/20 07:14:10;;;;;;;21.97;14.93;;;;;;;;;;5135179;27;20049;-50
2022/03/20 07:16:36;;;;;;;21.20;15.27;;;;;;;;;;5115710;27;20023;-47
2022/03/20 07:19:04;;;;;;;19.03;13.77;;;;;;;;;;5135210;27;20031;-51
2022/03/20 07:21:32;;;;;;;24.73;15.30;;;;;;;;;;5134113;27;20062;-48
2022/03/20 07:23:58;;;;;;;18.93;13.67;;;;;;;;;;5116652;27;20033;-48
2022/03/20 07:31:54;;;;;;;21.25;15.30;;;;;;;;;;5134108;27;20065;-48
2022/03/20 07:34:20;;;;;;;18.37;14.27;;;;;;;;;;5134643;27;20104;-47
2022/03/20 07:36:46;;;;;;;22.03;15.73;;;;;;;;;;5132796;27;20031;-52
2022/03/20 07:39:12;;;;;;;21.30;15.50;;;;;;;;;;5132284;27;20019;-47
2022/03/20 07:41:38;;;;;;;19.67;15.63;;;;;;;;;;5130905;27;20042;-50
2022/03/20 07:44:04;;;;;;;22.77;15.87;;;;;;;;;;5134574;27;20460;-51
2022/03/20 07:46:31;;;;;;;20.50;15.37;;;;;;;;;;5122566;27;20038;-47
2022/03/20 07:48:58;;;;;;;20.70;14.80;;;;;;;;;;5116065;27;20027;-47
2022/03/20 07:51:24;;;;;;;24.67;17.50;;;;;;;;;;5116112;27;20023;-46
2022/03/20 07:53:50;;;;;;;24.17;16.47;;;;;;;;;;5133309;27;20391;-48
2022/03/20 07:56:20;;;;;;;22.20;15.40;;;;;;;;;;5134316;27;20199;-47
2022/03/20 07:58:46;;;;;;;25.20;16.47;;;;;;;;;;5132434;27;20483;-53
2022/03/20 08:01:12;;;;;;;17.30;14.33;;;;;;;;;;5134285;27;20110;-50
2022/03/20 08:03:39;;;;;;;19.50;15.03;;;;;;;;;;5133337;27;20168;-51
2022/03/20 08:06:06;;;;;;;21.60;14.07;;;;;;;;;;5134375;27;20027;-50
2022/03/20 08:08:32;;;;;;;20.87;14.57;;;;;;;;;;5097073;28;20110;-49
2022/03/20 08:10:58;;;;;;;20.33;15.70;;;;;;;;;;5131416;27;20049;-49
2022/03/20 08:13:24;;;;;;;21.33;15.47;;;;;;;;;;5099605;28;20038;-48
2022/03/20 08:15:50;;;;;;;22.60;14.73;;;;;;;;;;5113590;28;20107;-49
2022/03/20 08:18:16;;;;;;;21.83;14.87;;;;;;;;;;5129400;27;20054;-49
2022/03/20 08:20:42;;;;;;;23.23;15.27;;;;;;;;;;5129631;27;20058;-47
2022/03/20 08:23:08;;;;;;;19.40;14.47;;;;;;;;;;5125647;27;20072;-47
2022/03/20 08:25:35;;;;;;;20.07;15.00;;;;;;;;;;5133872;27;20024;-51
2022/03/20 08:28:02;;;;;;;20.57;15.73;;;;;;;;;;5102715;28;20461;-48
2022/03/20 08:30:28;;;;;;;20.93;15.03;;;;;;;;;;5114247;27;20175;-47
2022/03/20 08:32:54;;;;;;;20.97;15.27;;;;;;;;;;5132527;27;20038;-47
2022/03/20 08:35:21;;;;;;;19.67;15.20;;;;;;;;;;5114672;27;20061;-47
2022/03/20 08:37:48;;;;;;;21.10;16.63;;;;;;;;;;5118946;27;20117;-48
2022/03/20 08:40:15;;;;;;;21.70;15.73;;;;;;;;;;5112768;28;20024;-48
2022/03/20 08:42:48;;;;;;;21.13;15.93;;;;;;;;;;5127456;27;20092;-46
2022/03/20 08:45:14;;;;;;;22.20;15.43;;;;;;;;;;5133653;27;20476;-46
2022/03/20 08:47:41;;;;;;;22.03;15.57;;;;;;;;;;5132390;27;20471;-48
2022/03/20 08:50:07;;;;;;;20.93;15.23;;;;;;;;;;5133364;27;20023;-47
2022/03/20 08:52:33;;;;;;;22.07;16.77;;;;;;;;;;5132483;27;20399;-52
2022/03/20 08:54:59;;;;;;;20.33;16.30;;;;;;;;;;5133525;27;20027;-47
2022/03/20 08:57:27;;;;;;;20.83;15.70;;;;;;;;;;5132246;27;20130;-47
2022/03/20 08:59:57;;;;;;;21.20;14.93;;;;;;;;;;5133460;27;20019;-47
2022/03/20 09:02:23;;;;;;;24.23;15.63;;;;;;;;;;5131875;27;20035;-50
2022/03/20 09:04:49;;;;;;;21.10;15.50;;;;;;;;;;5132082;27;20432;-48
2022/03/20 09:07:15;;;;;;;21.97;15.47;;;;;;;;;;5132181;27;20027;-47
2022/03/20 09:09:41;;;;;;;21.20;15.07;;;;;;;;;;5132952;27;20023;-48
2022/03/20 09:12:10;;;;;;;23.33;19.63;;;;;;;;;;5117392;28;20020;-49
2022/03/20 09:14:36;;;;;;;20.17;15.40;;;;;;;;;;5113030;28;20034;-50
2022/03/20 09:19:47;;;;;;;23.77;15.30;;;;;;;;;;5133660;28;20081;-48
2022/03/20 09:22:16;;;;;;;19.53;15.47;;;;;;;;;;5124197;28;20448;-48
2022/03/20 09:24:42;;;;;;;21.77;16.07;;;;;;;;;;5133120;28;20047;-47
2022/03/20 09:27:08;;;;;;;19.00;15.63;;;;;;;;;;5131627;28;20038;-49
2022/03/20 09:29:34;;;;;;;21.38;14.82;;;;;;;;;;5132885;28;20420;-47
2022/03/20 09:32:00;;;;;;;18.83;15.00;;;;;;;;;;5127766;28;20116;-47
2022/03/20 09:34:26;;;;;;;21.08;16.15;;;;;;;;;;5093957;28;20182;-48
2022/03/20 09:36:52;;;;;;;21.15;16.42;;;;;;;;;;5094446;28;20225;-47
2022/03/20 09:39:18;;;;;;;18.37;14.70;;;;;;;;;;5112127;28;20524;-50
2022/03/20 09:41:47;;;;;;;21.85;16.77;;;;;;;;;;5093985;28;20035;-47
2022/03/20 09:44:15;;;;;;;21.13;15.57;;;;;;;;;;5100696;28;20061;-48
2022/03/20 09:46:42;;;;;;;20.27;15.45;;;;;;;;;;5109420;28;20028;-48
2022/03/20 09:49:08;;;;;;;21.25;16.80;;;;;;;;;;5112379;28;20073;-48
2022/03/20 09:51:34;;;;;;;23.45;16.50;;;;;;;;;;5114112;28;20019;-47
2022/03/20 09:54:00;;;;;;;19.90;16.65;;;;;;;;;;5132978;28;20026;-47
2022/03/20 09:56:27;;;;;;;19.60;16.38;;;;;;;;;;5131301;28;20019;-47
2022/03/20 09:58:53;;;;;;;22.88;16.92;;;;;;;;;;5132576;28;20016;-48
2022/03/20 10:01:19;;;;;;;21.35;16.77;;;;;;;;;;5122699;28;20036;-48
2022/03/20 10:03:46;;;;;;;21.48;15.98;;;;;;;;;;5097443;28;20023;-47
2022/03/20 10:06:16;;;;;;;23.75;17.00;;;;;;;;;;5132811;28;20027;-50
2022/03/20 10:09:01;;;;;;;19.45;14.88;;;;;;;;;;5093957;28;20020;-49
2022/03/20 10:11:27;;;;;;;20.77;17.25;;;;;;;;;;5112205;28;20028;-47
2022/03/20 10:14:05;;;;;;;21.90;16.05;;;;;;;;;;5132882;28;20019;-52
2022/03/20 10:16:32;;;;;;;26.00;18.25;;;;;;;;;;5112020;28;20032;-48
2022/03/20 10:18:58;;;;;;;20.63;16.42;;;;;;;;;;5112345;28;20107;-48
2022/03/20 10:21:42;;;;;;;22.20;16.95;;;;;;;;;;5117334;27;20038;-49
2022/03/20 10:24:15;;;;;;;21.58;16.30;;;;;;;;;;5115893;28;20023;-48
2022/03/20 10:26:41;;;;;;;21.08;16.15;;;;;;;;;;5116602;27;20072;-48
2022/03/20 10:29:14;;;;;;;21.92;16.75;;;;;;;;;;5135427;27;20111;-48
2022/03/20 10:31:48;;;;;;;21.58;16.20;;;;;;;;;;5113874;27;20390;-48
2022/03/20 10:34:14;;;;;;;21.38;16.45;;;;;;;;;;5136086;27;20124;-48
2022/03/20 10:36:42;;;;;;;21.35;15.65;;;;;;;;;;5135059;27;20031;-48
2022/03/20 10:39:27;;;;;;;22.35;15.70;;;;;;;;;;5136455;27;20047;-51
2022/03/20 10:41:53;;;;;;;;;;;;;;;;;;5134748;27;20043;-50
2022/03/20 10:44:31;;;;;;;24.27;17.05;;;;;;;;;;5134908;27;19944;-49
2022/03/20 10:46:57;;;;;;;21.13;17.30;;;;;;;;;;5135087;27;20154;-49
2022/03/20 10:49:23;;;;;;;22.65;19.60;;;;;;;;;;5134709;27;20027;-51
2022/03/20 10:52:03;;;;;;;26.13;18.20;;;;;;;;;;5121598;27;20038;-49
2022/03/20 10:54:58;;;;;;;24.15;17.75;;;;;;;;;;5131444;27;20042;-47
2022/03/20 10:57:34;;;;;;;25.38;16.50;;;;;;;;;;5111064;27;20392;-52
2022/03/20 11:00:05;;;;;;;23.25;17.58;;;;;;;;;;5128587;27;20031;-53
2022/03/20 11:02:32;;;;;;;22.10;16.67;;;;;;;;;;5126177;27;20031;-48
2022/03/20 11:04:58;;;;;;;22.17;17.38;;;;;;;;;;5127020;27;20025;-50
2022/03/20 11:07:26;;;;;;;20.35;16.25;;;;;;;;;;5120085;27;20185;-49
2022/03/20 11:09:53;;;;;;;23.70;16.90;;;;;;;;;;5131223;27;20024;-51
2022/03/20 11:12:23;;;;;;;19.02;16.30;;;;;;;;;;5122721;27;20042;-49
2022/03/20 11:14:49;;;;;;;22.48;16.75;;;;;;;;;;5127983;27;20391;-53
2022/03/20 11:17:17;;;;;;;20.83;16.02;;;;;;;;;;5132701;27;20034;-48
2022/03/20 11:19:48;;;;;;;21.40;16.00;;;;;;;;;;5127767;27;20413;-47
2022/03/20 11:22:15;;;;;;;20.30;17.52;;;;;;;;;;5126178;27;20027;-51
2022/03/20 11:24:42;;;;;;;23.00;17.88;;;;;;;;;;5132819;27;20023;-48
2022/03/20 11:27:11;;;;;;;27.90;18.75;;;;;;;;;;5108069;27;20025;-47
2022/03/20 11:29:48;;;;;;;22.40;17.77;;;;;;;;;;5123315;27;20515;-48
2022/03/20 11:32:15;;;;;;;21.10;17.48;;;;;;;;;;5125703;27;20449;-48
2022/03/20 11:34:43;;;;;;;23.40;17.35;;;;;;;;;;5125973;27;20041;-48
2022/03/20 11:37:10;;;;;;;23.65;16.95;;;;;;;;;;5130882;27;20035;-49
2022/03/20 11:39:37;;;;;;;24.00;17.75;;;;;;;;;;5134742;27;20201;-46
2022/03/20 11:42:24;;;;;;;19.95;15.77;;;;;;;;;;5121363;27;20039;-48
2022/03/20 11:44:53;;;;;;;22.15;16.25;;;;;;;;;;5121190;27;20027;-49
2022/03/20 11:47:20;;;;;;;21.75;16.27;;;;;;;;;;5127627;27;20035;-49
2022/03/20 11:50:05;;;;;;;22.38;17.45;;;;;;;;;;5125740;27;20019;-48
2022/03/20 11:52:44;;;;;;;27.63;19.42;;;;;;;;;;5128575;27;20050;-48
2022/03/20 11:55:24;;;;;;;19.70;15.40;;;;;;;;;;5121183;27;20019;-51
2022/03/20 11:57:50;;;;;;;20.88;15.95;;;;;;;;;;5112174;27;20031;-51
2022/03/20 12:00:19;;;;;;;20.27;16.40;;;;;;;;;;5132411;27;20030;-47
2022/03/20 12:02:51;;;;;;;22.55;17.33;;;;;;;;;;5126475;27;20031;-48
2022/03/20 12:05:35;;;;;;;19.65;15.80;;;;;;;;;;5120068;27;20019;-50
2022/03/20 12:08:05;;;;;;;21.10;16.90;;;;;;;;;;5118368;27;20027;-47
2022/03/20 12:10:49;;;;;;;21.42;18.33;;;;;;;;;;5126475;27;20106;-47
2022/03/20 12:13:25;;;;;;;18.50;15.82;;;;;;;;;;5128731;27;20126;-48
2022/03/20 12:15:52;;;;;;;21.38;17.08;;;;;;;;;;5131771;27;20417;-47
2022/03/20 12:18:18;;;;;;;20.85;16.67;;;;;;;;;;5125595;27;20025;-51
2022/03/20 12:20:52;;;;;;;21.05;17.20;;;;;;;;;;5127713;27;20560;-49
2022/03/20 12:23:35;;;;;;;22.90;15.27;;;;;;;;;;5116253;27;20032;-48
2022/03/20 12:26:20;;;;;;;20.48;15.75;;;;;;;;;;5130097;27;20027;-48
2022/03/20 12:28:46;;;;;;;20.50;17.08;;;;;;;;;;5113603;27;20399;-50
2022/03/20 12:31:12;;;;;;;21.02;17.10;;;;;;;;;;5133075;27;20037;-46
2022/03/20 12:33:38;;;;;;;21.55;17.58;;;;;;;;;;5132247;27;20031;-54
2022/03/20 12:36:04;;;;;;;21.45;17.60;;;;;;;;;;5132773;27;20379;-52
2022/03/20 12:38:34;;;;;;;20.63;16.83;;;;;;;;;;5131614;27;20065;-53
2022/03/20 12:41:07;;;;;;;20.40;16.95;;;;;;;;;;5105019;27;20403;-50
2022/03/20 12:43:33;;;;;;;19.40;16.98;;;;;;;;;;5123459;27;20594;-52
2022/03/20 12:46:00;;;;;;;20.25;16.75;;;;;;;;;;5133172;27;20480;-52
2022/03/20 12:48:31;;;;;;;21.17;17.55;;;;;;;;;;5112830;28;20051;-51
2022/03/20 12:51:04;;;;;;;22.67;17.10;;;;;;;;;;5115041;27;20056;-52
2022/03/20 12:53:45;;;;;;;21.17;17.38;;;;;;;;;;5125072;27;20020;-50
2022/03/20 12:56:20;;;;;;;21.75;19.13;;;;;;;;;;5120605;27;20106;-50
2022/03/20 12:58:47;;;;;;;22.90;18.63;;;;;;;;;;5124580;27;20026;-53
2022/03/20 13:01:13;;;;;;;21.60;18.92;;;;;;;;;;5118748;27;20033;-51
2022/03/20 13:03:40;;;;;;;20.13;17.85;;;;;;;;;;5110503;28;20087;-54
2022/03/20 13:06:06;;;;;;;22.98;19.05;;;;;;;;;;5130687;27;20023;-50
2022/03/20 13:08:34;;;;;;;23.75;20.10;;;;;;;;;;5129163;27;20031;-51
2022/03/20 13:11:03;;;;;;;24.95;21.50;;;;;;;;;;5132007;27;20070;-51
2022/03/20 13:13:30;;;;;;;21.38;19.10;;;;;;;;;;5128048;27;20031;-50
2022/03/20 13:15:56;;;;;;;21.65;18.65;;;;;;;;;;5124158;28;20027;-50
2022/03/20 13:18:27;;;;;;;20.48;18.27;;;;;;;;;;5113387;28;20019;-50
2022/03/20 13:20:53;;;;;;;22.60;20.20;;;;;;;;;;5128719;28;20043;-47
2022/03/20 13:23:20;;;;;;;22.33;19.33;;;;;;;;;;5128602;28;20164;-52
2022/03/20 13:25:54;;;;;;;22.90;19.15;;;;;;;;;;5093695;28;20031;-53
2022/03/20 13:28:26;;;;;;;22.27;19.98;;;;;;;;;;5111529;28;20027;-52
2022/03/20 13:30:54;;;;;;;21.52;18.05;;;;;;;;;;5093790;28;20047;-50
2022/03/20 13:33:36;;;;;;;20.98;18.83;;;;;;;;;;5124168;27;20032;-50
2022/03/20 13:36:07;;;;;;;21.88;19.63;;;;;;;;;;5117118;28;20314;-52
2022/03/20 13:38:34;;;;;;;24.40;19.67;;;;;;;;;;5120624;28;20050;-49
2022/03/20 13:41:05;;;;;;;21.15;18.90;;;;;;;;;;5097609;28;20057;-49
2022/03/20 13:43:31;;;;;;;23.60;20.42;;;;;;;;;;5127384;28;20135;-48
2022/03/20 13:46:09;;;;;;;22.73;20.42;;;;;;;;;;5118593;28;20474;-49
2022/03/20 13:48:36;;;;;;;21.30;19.08;;;;;;;;;;5116693;28;20044;-50
2022/03/20 13:51:04;;;;;;;22.20;19.88;;;;;;;;;;5133479;28;20035;-52
2022/03/20 13:53:30;;;;;;;21.35;18.88;;;;;;;;;;5128127;28;20020;-50
2022/03/20 13:55:57;;;;;;;21.27;19.10;;;;;;;;;;5128144;27;20027;-49
2022/03/20 13:58:23;;;;;;;24.90;20.77;;;;;;;;;;5135193;27;20070;-49
2022/03/20 14:00:58;;;;;;;21.77;18.35;;;;;;;;;;5136953;27;20070;-53
2022/03/20 14:03:26;;;;;;;21.45;19.25;;;;;;;;;;5131603;27;20472;-51
2022/03/20 14:05:52;;;;;;;22.40;19.45;;;;;;;;;;5126334;27;20043;-53
2022/03/20 14:08:19;;;;;;;23.17;20.23;;;;;;;;;;5128323;27;20145;-49
2022/03/20 14:10:52;;;;;;;23.58;21.10;;;;;;;;;;5132132;27;20026;-53
2022/03/20 14:13:20;;;;;;;22.88;20.40;;;;;;;;;;5131524;27;20027;-51
2022/03/20 14:15:53;;;;;;;20.67;18.58;;;;;;;;;;5136413;27;20019;-48
2022/03/20 14:18:19;;;;;;;21.15;18.48;;;;;;;;;;5133628;27;20027;-51
2022/03/20 14:20:45;;;;;;;20.45;18.15;;;;;;;;;;5117885;27;20054;-49
2022/03/20 14:23:12;;;;;;;19.92;17.88;;;;;;;;;;5096947;27;20039;-54
2022/03/20 14:25:45;;;;;;;21.63;18.52;;;;;;;;;;5136841;27;20094;-53
2022/03/20 14:28:13;;;;;;;21.88;18.85;;;;;;;;;;5108658;28;20055;-54
2022/03/20 14:41:51;;;;;;;22.15;18.25;;;;;;;;;;5129005;27;20054;-49
2022/03/20 14:44:18;;;;;;;21.80;18.88;;;;;;;;;;5126183;27;20015;-50
2022/03/20 14:46:47;;;;;;;21.55;18.95;;;;;;;;;;5134631;27;20027;-51
2022/03/20 14:49:13;;;;;;;21.38;18.23;;;;;;;;;;5125111;27;20106;-51
2022/03/20 14:51:42;;;;;;;23.77;19.13;;;;;;;;;;5120116;27;20466;-49
2022/03/20 14:54:09;;;;;;;21.65;19.02;;;;;;;;;;5115051;27;20023;-49
2022/03/20 14:56:37;;;;;;;23.88;19.55;;;;;;;;;;5123105;27;20492;-49
2022/03/20 14:59:04;;;;;;;21.92;18.85;;;;;;;;;;5125471;27;20047;-54
2022/03/20 15:01:30;;;;;;;21.20;18.92;;;;;;;;;;5135552;27;20085;-51